Air Park, Nebraska
Current Conditions -  °F | °C
As of 1:10 PM on Thursday 23 Oct 2014 (Local Time) from KLNK Reporting Station
Scattered Clouds Scattered Clouds  
Wind Chill: 18°   Ceiling: Unl
Heat Index: 18°   Visibility: 10mi
Dew Point: 13°   Wind: 8mph
Humidity: 72%   Direction: 210°SSW
Pressure: 30.08"   Gusts: NA
Location:  40.8731°N, 96.8015°W
Report Text: KLNK 231810Z 21007KT 10SM SCT014 18/13 A3008 RMK AO2 T01780128
Loading
Personal Weather Stations






























Interactive Weather Map
Tropical Storm Tracking
New forecast layout! Learn more

10-Day Weather Forecast

Advertisements
Track Severe Weather on mobile